Ecorse, Michigan
Current Conditions -  °F | °C
As of 3:00 PM on Sunday 21 Dec 2014 (Local Time) from CYQG Reporting Station
Overcast Overcast  
Wind Chill: 26°   Ceiling: 26000
Heat Index: 34°   Visibility: 10mi
Dew Point: 23°   Wind: 9mph
Humidity: 65%   Direction: 160°SSE
Pressure: 30.24"   Gusts: NA
Location:  42.26°N, 83.14°W
Report Text: CYQG 212000Z 16008KT 10SM FEW025 OVC260 01/M05 A3024 RMK SC2CI6 CONTRAILS SLP247
Loading
Personal Weather Stations






























Interactive Weather Map New forecast layout! Learn more

10-Day Weather Forecast

Advertisements
Track Severe Weather on mobile